Snow Hill, Alabama
Current Conditions -  °F | °C
As of 7:55 PM on Wednesday 26 Nov 2014 (Local Time) from KSEM Reporting Station
NA  
Wind Chill: 52°   Ceiling: NA
Heat Index: 52°   Visibility: 10mi
Dew Point: 30°   Wind: 13mph
Humidity: 44%   Direction: 190°S
Pressure: 30.1"   Gusts: NA
Location:  32°N, 87.01°W
Report Text: KSEM 270155Z AUTO 19011KT 10SM 11/M01 A3010 RMK AO2
Loading
Personal Weather Stations






























Interactive Weather Map New forecast layout! Learn more

10-Day Weather Forecast

Advertisements
Track Severe Weather on mobile